createdAt,value
2022-10-19T00:01:14.681Z,28.55
2022-10-19T00:03:43.187Z,36.72
2022-10-19T00:06:15.626Z,29.67
2022-10-19T00:08:42.934Z,33.45
2022-10-19T00:11:10.523Z,31.95
2022-10-19T00:13:37.431Z,33.55
2022-10-19T00:16:11.517Z,33.80
2022-10-19T00:18:39.736Z,30.38
2022-10-19T00:21:08.561Z,31.35
2022-10-19T00:23:35.812Z,36.67
2022-10-19T00:26:03.040Z,33.08
2022-10-19T00:28:30.561Z,29.95
2022-10-19T00:31:06.657Z,30.05
2022-10-19T00:33:33.914Z,29.20
2022-10-19T00:36:01.559Z,29.10
2022-10-19T00:38:28.332Z,24.45
2022-10-19T00:40:55.309Z,25.20
2022-10-19T00:43:24.867Z,29.98
2022-10-19T00:45:52.955Z,25.10
2022-10-19T00:48:31.919Z,28.98
2022-10-19T00:51:00.394Z,29.40
2022-10-19T00:53:30.451Z,32.95
2022-10-19T00:55:59.409Z,29.98
2022-10-19T00:58:26.154Z,26.92
2022-10-19T01:00:53.293Z,26.92
2022-10-19T01:03:21.163Z,27.77
2022-10-19T01:05:48.638Z,29.55
2022-10-19T01:08:15.787Z,29.52
2022-10-19T01:11:03.976Z,24.42
2022-10-19T01:13:54.196Z,27.55
2022-10-19T01:16:42.478Z,25.38
2022-10-19T01:19:44.707Z,27.23
2022-10-19T01:22:36.348Z,32.42
2022-10-19T01:25:37.242Z,28.58
2022-10-19T01:28:34.620Z,23.20
2022-10-19T01:31:18.205Z,29.00
2022-10-19T01:34:14.967Z,29.77
2022-10-19T01:37:02.573Z,29.83
2022-10-19T01:39:51.981Z,25.20
2022-10-19T01:42:52.346Z,24.83
2022-10-19T01:45:25.127Z,22.52
2022-10-19T01:48:02.632Z,25.02
2022-10-19T01:50:44.777Z,29.52
2022-10-19T01:53:14.101Z,27.63
2022-10-19T01:55:44.897Z,21.23
2022-10-19T01:58:17.117Z,27.88
2022-10-19T02:00:46.770Z,27.33
2022-10-19T02:03:14.596Z,25.98
2022-10-19T02:05:45.803Z,24.83
2022-10-19T02:08:18.304Z,29.83
2022-10-19T02:10:46.474Z,24.40
2022-10-19T02:13:16.407Z,30.55
2022-10-19T02:15:47.662Z,23.02
2022-10-19T02:18:19.803Z,28.33
2022-10-19T02:20:47.132Z,26.98
2022-10-19T02:23:19.200Z,25.23
2022-10-19T02:25:46.543Z,32.28
2022-10-19T02:28:13.362Z,32.55
2022-10-19T02:30:40.408Z,29.63
2022-10-19T02:33:07.943Z,26.95
2022-10-19T02:35:35.064Z,25.23
2022-10-19T02:38:04.393Z,28.50
2022-10-19T02:40:36.676Z,26.52
2022-10-19T02:43:07.661Z,29.90
2022-10-19T02:45:44.845Z,27.88
2022-10-19T02:48:18.485Z,26.15
2022-10-19T02:50:47.770Z,22.23
2022-10-19T02:53:16.026Z,25.02
2022-10-19T02:55:43.453Z,22.42
2022-10-19T02:58:10.242Z,23.85
2022-10-19T03:00:37.238Z,21.63
2022-10-19T03:03:04.008Z,26.40
2022-10-19T03:05:31.059Z,22.35
2022-10-19T03:07:57.771Z,26.17
2022-10-19T03:10:24.685Z,23.58
2022-10-19T03:12:51.459Z,24.52
2022-10-19T03:15:19.667Z,31.35
2022-10-19T03:17:46.403Z,24.42
2022-10-19T03:20:13.359Z,24.17
2022-10-19T03:22:40.143Z,33.03
2022-10-19T03:25:07.505Z,27.30
2022-10-19T03:27:34.403Z,25.77
2022-10-19T03:30:01.668Z,25.98
2022-10-19T03:32:28.404Z,28.65
2022-10-19T03:34:55.347Z,26.55
2022-10-19T03:37:22.100Z,27.10
2022-10-19T03:39:49.002Z,29.17
2022-10-19T03:42:15.769Z,25.48
2022-10-19T03:44:42.743Z,32.17
2022-10-19T03:47:09.460Z,33.15
2022-10-19T03:49:38.116Z,28.63
2022-10-19T03:52:07.002Z,26.30
2022-10-19T03:54:33.928Z,25.50
2022-10-19T03:57:00.634Z,27.88
2022-10-19T03:59:27.663Z,27.63
2022-10-19T04:01:54.478Z,24.15
2022-10-19T04:04:21.470Z,21.77
2022-10-19T04:06:50.100Z,24.50
2022-10-19T04:09:19.279Z,21.10
2022-10-19T04:11:46.263Z,23.02
2022-10-19T04:14:22.708Z,19.42
2022-10-19T04:17:01.245Z,22.40
2022-10-19T04:19:28.301Z,24.10
2022-10-19T04:21:55.057Z,24.95
2022-10-19T04:24:22.224Z,22.70
2022-10-19T04:26:55.071Z,22.63
2022-10-19T04:29:26.469Z,26.73
2022-10-19T04:31:56.668Z,17.83
2022-10-19T04:34:24.189Z,30.83
2022-10-19T04:36:51.036Z,21.83
2022-10-19T04:39:17.992Z,19.70
2022-10-19T04:41:44.753Z,27.02
2022-10-19T04:44:11.741Z,21.70
2022-10-19T04:46:38.852Z,29.27
2022-10-19T04:49:06.906Z,20.50
2022-10-19T04:51:34.594Z,22.65
2022-10-19T04:54:04.850Z,22.00
2022-10-19T04:56:32.473Z,26.90
2022-10-19T04:59:00.881Z,24.55
2022-10-19T05:01:29.383Z,23.33
2022-10-19T05:03:59.492Z,27.60
2022-10-19T05:06:26.366Z,17.30
2022-10-19T05:08:53.368Z,17.95
2022-10-19T05:11:20.830Z,23.95
2022-10-19T05:13:48.522Z,22.92
2022-10-19T05:16:18.044Z,29.10
2022-10-19T05:18:56.099Z,24.00
2022-10-19T05:21:22.886Z,19.48
2022-10-19T05:23:54.506Z,26.98
2022-10-19T05:26:23.976Z,22.60
2022-10-19T05:28:57.064Z,19.77
2022-10-19T05:31:26.491Z,21.38
2022-10-19T05:33:53.781Z,20.77
2022-10-19T05:36:25.381Z,21.85
2022-10-19T05:38:54.028Z,20.80
2022-10-19T05:41:22.135Z,17.83
2022-10-19T05:43:53.779Z,22.95
2022-10-19T05:46:20.765Z,23.80
2022-10-19T05:48:48.043Z,25.30
2022-10-19T05:51:18.899Z,22.25
2022-10-19T05:53:46.369Z,20.63
2022-10-19T05:56:18.320Z,25.88
2022-10-19T05:58:46.094Z,21.13
2022-10-19T06:01:14.166Z,23.27
2022-10-19T06:03:41.208Z,21.60
2022-10-19T06:06:09.542Z,24.35
2022-10-19T06:08:37.869Z,24.05
2022-10-19T06:11:20.453Z,26.27
2022-10-19T06:13:50.660Z,18.83
2022-10-19T06:16:19.194Z,25.17
2022-10-19T06:18:46.683Z,29.40
2022-10-19T06:21:15.478Z,18.17
2022-10-19T06:26:15.185Z,18.75
2022-10-19T06:28:43.649Z,19.73
2022-10-19T06:31:11.432Z,20.23
2022-10-19T06:33:40.352Z,18.73
2022-10-19T06:36:16.367Z,17.15
2022-10-19T06:38:43.969Z,15.40
2022-10-19T06:41:11.721Z,16.00
2022-10-19T06:43:39.484Z,21.83
2022-10-19T06:46:11.708Z,23.77
2022-10-19T06:48:38.823Z,22.92
2022-10-19T06:51:09.667Z,17.35
2022-10-19T06:53:37.194Z,17.40
2022-10-19T06:56:05.980Z,16.00
2022-10-19T06:58:37.939Z,17.45
2022-10-19T07:01:07.695Z,17.20
2022-10-19T07:03:35.735Z,16.48
2022-10-19T07:06:05.570Z,22.00
2022-10-19T07:08:34.112Z,17.52
2022-10-19T07:11:03.345Z,20.35
2022-10-19T07:13:31.085Z,20.90
2022-10-19T07:15:59.982Z,19.80
2022-10-19T07:18:27.583Z,19.95
2022-10-19T07:21:05.721Z,19.63
2022-10-19T07:23:34.402Z,22.02
2022-10-19T07:26:12.699Z,19.75
2022-10-19T07:28:41.427Z,21.58
2022-10-19T07:31:11.949Z,17.83
2022-10-19T07:33:39.023Z,20.92
2022-10-19T07:36:08.598Z,23.27
2022-10-19T07:38:36.065Z,21.73
2022-10-19T07:41:08.580Z,29.58
2022-10-19T07:43:36.307Z,18.88
2022-10-19T07:46:06.290Z,22.63
2022-10-19T07:48:34.441Z,18.67
2022-10-19T07:51:02.587Z,20.05
2022-10-19T07:53:29.739Z,19.23
2022-10-19T07:55:56.553Z,17.17
2022-10-19T07:58:23.489Z,17.88
2022-10-19T08:00:50.244Z,14.07
2022-10-19T08:06:06.083Z,13.18
2022-10-19T08:08:33.911Z,15.50
2022-10-19T08:11:08.551Z,11.55
2022-10-19T08:13:35.941Z,10.95
2022-10-19T08:16:02.888Z,14.00
2022-10-19T08:21:02.465Z,18.05
2022-10-19T08:23:29.434Z,9.82
2022-10-19T08:25:59.947Z,13.55
2022-10-19T08:28:26.899Z,11.23
2022-10-19T08:30:58.073Z,12.13
2022-10-19T08:33:26.464Z,17.40
2022-10-19T08:35:54.173Z,11.88
2022-10-19T08:38:21.089Z,11.07
2022-10-19T08:40:47.983Z,12.23
2022-10-19T08:43:30.644Z,9.13
2022-10-19T08:46:10.286Z,16.13
2022-10-19T08:48:39.283Z,9.82
2022-10-19T08:51:09.292Z,13.40
2022-10-19T08:53:39.496Z,6.55
2022-10-19T08:56:49.830Z,6.85
2022-10-19T08:59:59.372Z,5.75
2022-10-19T09:02:54.411Z,9.30
2022-10-19T09:05:28.425Z,6.75
2022-10-19T09:07:55.802Z,6.45
2022-10-19T09:10:28.112Z,6.60
2022-10-19T09:13:05.445Z,7.07
2022-10-19T09:15:41.525Z,6.38
2022-10-19T09:18:12.220Z,7.25
2022-10-19T09:20:43.272Z,6.05
2022-10-19T09:23:40.500Z,5.15
2022-10-19T09:26:19.495Z,4.22
2022-10-19T09:28:58.482Z,3.95
2022-10-19T09:31:34.081Z,6.07
2022-10-19T09:34:07.669Z,4.65
2022-10-19T09:36:57.262Z,3.58
2022-10-19T09:39:28.660Z,5.32
2022-10-19T09:42:07.741Z,4.80
2022-10-19T09:44:34.841Z,4.18
2022-10-19T09:47:33.008Z,5.97
2022-10-19T09:50:15.300Z,7.10
2022-10-19T09:52:44.048Z,7.32
2022-10-19T09:55:19.770Z,6.55
2022-10-19T09:57:49.602Z,6.05
2022-10-19T10:00:25.552Z,4.22
2022-10-19T10:02:54.267Z,4.20
2022-10-19T10:05:32.458Z,4.13
2022-10-19T10:07:59.451Z,8.48
2022-10-19T10:10:38.791Z,5.55
2022-10-19T10:13:06.236Z,4.03
2022-10-19T10:15:43.999Z,4.68
2022-10-19T10:18:15.469Z,4.30
2022-10-19T10:23:27.659Z,4.95
2022-10-19T10:25:58.985Z,4.15
2022-10-19T10:28:28.534Z,6.55
2022-10-19T10:31:19.006Z,4.72
2022-10-19T10:33:54.536Z,4.78
2022-10-19T10:36:24.916Z,5.38
2022-10-19T10:38:54.684Z,4.97
2022-10-19T10:41:23.549Z,3.45
2022-10-19T10:43:59.566Z,2.78
2022-10-19T10:46:42.577Z,2.05
2022-10-19T10:49:21.448Z,1.55
2022-10-19T10:51:55.120Z,2.17
2022-10-19T10:54:23.752Z,1.83
2022-10-19T10:57:05.579Z,1.60
2022-10-19T10:59:56.515Z,0.85
2022-10-19T11:02:52.070Z,2.00
2022-10-19T11:05:24.366Z,2.78
2022-10-19T11:07:58.798Z,6.07
2022-10-19T11:10:33.304Z,2.70
2022-10-19T11:13:15.413Z,2.42
2022-10-19T11:16:03.113Z,3.00
2022-10-19T11:18:50.133Z,2.10
2022-10-19T11:21:19.637Z,4.93
2022-10-19T11:24:11.672Z,0.90
2022-10-19T11:26:41.356Z,3.80
2022-10-19T11:29:14.085Z,7.00
2022-10-19T11:31:48.330Z,1.58
2022-10-19T11:34:47.409Z,4.10
2022-10-19T11:37:28.969Z,3.15
2022-10-19T11:40:11.941Z,3.58
2022-10-19T11:42:57.253Z,3.40
2022-10-19T11:45:53.967Z,1.92
2022-10-19T11:48:52.959Z,2.72
2022-10-19T11:51:33.552Z,4.43
2022-10-19T11:54:14.572Z,3.70
2022-10-19T11:57:13.823Z,4.20
2022-10-19T11:59:52.608Z,1.85
2022-10-19T12:02:49.965Z,2.90
2022-10-19T12:05:21.873Z,1.75
2022-10-19T12:08:09.801Z,1.73
2022-10-19T12:10:57.512Z,2.97
2022-10-19T12:13:40.629Z,2.75
2022-10-19T12:16:11.012Z,2.58
2022-10-19T12:18:47.574Z,1.73
2022-10-19T12:21:24.968Z,2.05
2022-10-19T12:23:52.367Z,3.25
2022-10-19T12:26:22.290Z,2.47
2022-10-19T12:29:12.192Z,1.25
2022-10-19T12:31:39.789Z,3.20
2022-10-19T12:34:25.539Z,1.35
2022-10-19T12:37:23.801Z,3.33
2022-10-19T12:39:53.251Z,1.60
2022-10-19T12:42:33.241Z,1.70
2022-10-19T12:45:25.200Z,2.25
2022-10-19T12:48:19.069Z,1.75
2022-10-19T12:50:48.832Z,3.95
2022-10-19T12:53:41.065Z,7.03
2022-10-19T12:56:26.743Z,3.67
2022-10-19T12:59:01.437Z,3.65
2022-10-19T13:01:43.985Z,3.90
2022-10-19T13:04:15.285Z,1.98
2022-10-19T13:06:49.343Z,1.80
2022-10-19T13:09:41.991Z,5.13
2022-10-19T13:12:17.957Z,2.25
2022-10-19T13:14:57.287Z,2.72
2022-10-19T13:17:49.034Z,1.92
2022-10-19T13:20:16.218Z,4.65
2022-10-19T13:23:01.568Z,6.72
2022-10-19T13:25:30.746Z,4.07
2022-10-19T13:27:57.456Z,4.22
2022-10-19T13:30:36.434Z,3.63
2022-10-19T13:33:27.997Z,2.85
2022-10-19T13:36:00.999Z,2.42
2022-10-19T13:38:38.048Z,2.63
2022-10-19T13:41:18.250Z,3.55
2022-10-19T13:44:12.010Z,1.60
2022-10-19T13:46:38.899Z,3.33
2022-10-19T13:49:32.533Z,2.17
2022-10-19T13:55:35.899Z,1.90
2022-10-19T13:58:33.707Z,5.07
2022-10-19T14:01:18.924Z,3.00
2022-10-19T14:04:12.403Z,2.90
2022-10-19T14:06:47.496Z,3.67
2022-10-19T14:09:35.632Z,3.95
2022-10-19T14:12:09.009Z,2.92
2022-10-19T14:17:20.819Z,3.08
2022-10-19T14:19:51.972Z,5.95
2022-10-19T14:22:33.502Z,4.57
2022-10-19T14:25:17.030Z,3.33
2022-10-19T14:27:45.351Z,5.53
2022-10-19T14:30:27.556Z,3.97
2022-10-19T14:32:58.151Z,4.97
2022-10-19T14:35:31.907Z,4.13
2022-10-19T14:38:00.189Z,5.53
2022-10-19T14:40:30.964Z,6.22
2022-10-19T14:42:59.639Z,4.25
2022-10-19T14:45:31.963Z,3.85
2022-10-19T14:48:17.514Z,6.68
2022-10-19T14:50:55.637Z,5.00
2022-10-19T14:54:03.903Z,4.60
2022-10-19T14:56:41.152Z,3.75
2022-10-19T14:59:19.557Z,5.57
2022-10-19T15:01:52.498Z,3.55
2022-10-19T15:04:27.239Z,3.27
2022-10-19T15:06:55.463Z,6.15
2022-10-19T15:09:36.972Z,3.28
2022-10-19T15:12:17.954Z,4.95
2022-10-19T15:14:46.124Z,2.40
2022-10-19T15:17:31.886Z,3.72
2022-10-19T15:20:01.380Z,5.47
2022-10-19T15:22:31.644Z,2.88
2022-10-19T15:24:58.592Z,3.40
2022-10-19T15:27:37.070Z,6.53
2022-10-19T15:30:22.534Z,4.07
2022-10-19T15:32:54.799Z,5.28
2022-10-19T15:35:32.158Z,6.57
2022-10-19T15:38:10.131Z,5.78
2022-10-19T15:40:39.866Z,2.72
2022-10-19T15:43:34.689Z,3.83
2022-10-19T15:46:13.465Z,4.80
2022-10-19T15:48:40.340Z,5.80
2022-10-19T15:51:27.272Z,3.33
2022-10-19T15:54:07.525Z,5.43
2022-10-19T15:56:38.837Z,4.50
2022-10-19T15:59:12.013Z,4.90
2022-10-19T16:01:39.231Z,5.40
2022-10-19T16:04:06.303Z,4.30
2022-10-19T16:06:34.689Z,3.65
2022-10-19T16:09:02.512Z,4.28
2022-10-19T16:11:31.515Z,4.25
2022-10-19T16:13:58.487Z,4.85
2022-10-19T16:16:31.615Z,3.25
2022-10-19T16:18:59.581Z,6.10
2022-10-19T16:21:30.463Z,4.15
2022-10-19T16:23:57.853Z,5.05
2022-10-19T16:26:26.228Z,3.15
2022-10-19T16:28:54.563Z,3.00
2022-10-19T16:31:21.838Z,4.38
2022-10-19T16:33:48.773Z,6.05
2022-10-19T16:36:18.342Z,3.83
2022-10-19T16:38:45.253Z,3.85
2022-10-19T16:41:13.719Z,4.70
2022-10-19T16:43:40.759Z,6.63
2022-10-19T16:46:07.972Z,3.28
2022-10-19T16:48:35.112Z,4.78
2022-10-19T16:51:08.124Z,3.63
2022-10-19T16:53:35.371Z,5.35
2022-10-19T16:56:09.897Z,10.38
2022-10-19T16:58:37.358Z,3.03
2022-10-19T17:01:18.062Z,5.05
2022-10-19T17:03:49.148Z,4.25
2022-10-19T17:06:17.299Z,7.28
2022-10-19T17:09:23.256Z,5.80
2022-10-19T17:11:34.084Z,4.32
2022-10-19T17:14:03.895Z,6.38
2022-10-19T17:16:33.141Z,7.10
2022-10-19T17:19:01.957Z,7.93
2022-10-19T17:21:32.327Z,3.60
2022-10-19T17:24:02.157Z,7.55
2022-10-19T17:26:35.445Z,9.77
2022-10-19T17:29:03.377Z,3.95
2022-10-19T17:31:30.572Z,4.00
2022-10-19T17:33:58.091Z,7.40
2022-10-19T17:36:28.219Z,7.18
2022-10-19T17:38:57.544Z,5.28
2022-10-19T17:41:25.518Z,4.70
2022-10-19T17:43:53.072Z,4.05
2022-10-19T17:46:23.878Z,5.05
2022-10-19T17:48:51.340Z,7.78
2022-10-19T17:51:27.410Z,5.53
2022-10-19T17:53:57.255Z,5.30
2022-10-19T17:56:24.823Z,6.47
2022-10-19T17:58:51.923Z,37.20
2022-10-19T18:01:20.914Z,19.23
2022-10-19T18:03:48.496Z,16.95
2022-10-19T18:06:21.928Z,11.18
2022-10-19T18:08:52.073Z,6.15
2022-10-19T18:11:24.864Z,5.05
2022-10-19T18:13:54.279Z,6.32
2022-10-19T18:16:30.074Z,9.70
2022-10-19T18:18:58.800Z,8.18
2022-10-19T18:21:31.420Z,8.98
2022-10-19T18:24:00.452Z,6.50
2022-10-19T18:26:30.322Z,5.43
2022-10-19T18:28:58.327Z,6.95
2022-10-19T18:31:30.623Z,7.45
2022-10-19T18:34:02.916Z,8.07
2022-10-19T18:36:30.672Z,6.78
2022-10-19T18:39:02.913Z,6.82
2022-10-19T18:41:30.387Z,8.32
2022-10-19T18:44:03.143Z,6.63
2022-10-19T18:46:33.885Z,7.82
2022-10-19T18:49:01.578Z,7.32
2022-10-19T18:51:28.970Z,7.22
2022-10-19T18:53:56.037Z,7.22
2022-10-19T18:56:23.192Z,9.30
2022-10-19T18:58:50.473Z,10.07
2022-10-19T19:01:24.088Z,7.03
2022-10-19T19:03:53.548Z,8.38
2022-10-19T19:06:22.725Z,7.38
2022-10-19T19:08:49.713Z,8.13
2022-10-19T19:11:29.652Z,6.75
2022-10-19T19:14:06.105Z,5.35
2022-10-19T19:16:35.662Z,7.95
2022-10-19T19:19:03.076Z,5.68
2022-10-19T19:21:31.660Z,7.15
2022-10-19T19:24:00.862Z,7.32
2022-10-19T19:26:30.863Z,5.13
2022-10-19T19:28:58.361Z,5.15
2022-10-19T19:31:25.580Z,6.55
2022-10-19T19:33:52.632Z,5.85
2022-10-19T19:36:20.372Z,6.63
2022-10-19T19:38:49.019Z,10.70
2022-10-19T19:41:16.440Z,5.88
2022-10-19T19:43:43.869Z,7.70
2022-10-19T19:46:16.706Z,6.32
2022-10-19T19:48:45.902Z,7.40
2022-10-19T19:51:16.028Z,5.60
2022-10-19T19:53:43.444Z,6.97
2022-10-19T19:56:12.256Z,8.45
2022-10-19T19:58:40.118Z,5.55
2022-10-19T20:01:16.545Z,6.30
2022-10-19T20:03:44.095Z,5.07
2022-10-19T20:06:10.999Z,4.30
2022-10-19T20:08:38.611Z,6.80
2022-10-19T20:11:08.882Z,7.95
2022-10-19T20:13:36.807Z,5.22
2022-10-19T20:16:08.646Z,5.90
2022-10-19T20:18:35.956Z,7.72
2022-10-19T20:21:03.968Z,6.35
2022-10-19T20:23:32.495Z,5.18
2022-10-19T20:25:59.250Z,8.60
2022-10-19T20:28:26.815Z,4.88
2022-10-19T20:31:01.749Z,5.75
2022-10-19T20:33:32.240Z,5.15
2022-10-19T20:36:06.514Z,9.60
2022-10-19T20:38:34.724Z,5.15
2022-10-19T20:41:09.905Z,9.45
2022-10-19T20:43:37.768Z,5.22
2022-10-19T20:46:13.210Z,4.45
2022-10-19T20:48:40.491Z,4.82
2022-10-19T20:51:18.961Z,7.43
2022-10-19T20:53:50.626Z,5.40
2022-10-19T20:56:21.661Z,7.78
2022-10-19T20:58:54.637Z,6.90
2022-10-19T21:01:21.966Z,4.60
2022-10-19T21:03:57.291Z,6.18
2022-10-19T21:06:28.848Z,3.22
2022-10-19T21:08:56.252Z,5.93
2022-10-19T21:11:28.969Z,8.13
2022-10-19T21:13:58.843Z,4.57
2022-10-19T21:16:27.561Z,8.07
2022-10-19T21:18:55.006Z,8.45
2022-10-19T21:21:24.961Z,10.15
2022-10-19T21:23:55.375Z,4.88
2022-10-19T21:26:25.113Z,5.28
2022-10-19T21:28:55.069Z,5.90
2022-10-19T21:31:23.403Z,4.60
2022-10-19T21:33:53.661Z,6.82
2022-10-19T21:36:21.797Z,4.65
2022-10-19T21:38:48.743Z,5.35
2022-10-19T21:41:20.803Z,4.80
2022-10-19T21:43:51.043Z,5.32
2022-10-19T21:46:19.752Z,5.30
2022-10-19T21:48:47.156Z,9.05
2022-10-19T21:51:16.806Z,5.75
2022-10-19T21:53:44.088Z,4.82
2022-10-19T21:56:10.868Z,4.63
2022-10-19T21:58:37.885Z,6.45
2022-10-19T22:01:08.599Z,6.13
2022-10-19T22:03:35.553Z,5.28
2022-10-19T22:06:02.353Z,4.82
2022-10-19T22:08:29.432Z,5.68
2022-10-19T22:10:56.504Z,7.60
2022-10-19T22:13:23.517Z,5.22
2022-10-19T22:15:50.221Z,6.38
2022-10-19T22:18:17.204Z,4.28
2022-10-19T22:20:44.036Z,6.43
2022-10-19T22:23:10.962Z,4.70
2022-10-19T22:25:37.731Z,4.28
2022-10-19T22:28:04.683Z,7.63
2022-10-19T22:30:31.437Z,6.60
2022-10-19T22:32:58.403Z,3.90
2022-10-19T22:35:25.150Z,4.78
2022-10-19T22:37:52.111Z,5.13
2022-10-19T22:40:18.873Z,4.28
2022-10-19T22:42:58.033Z,5.28
2022-10-19T22:45:24.799Z,5.10
2022-10-19T22:47:51.743Z,3.15
2022-10-19T22:50:18.500Z,4.03
2022-10-19T22:52:45.448Z,5.70
2022-10-19T22:55:12.288Z,5.80
2022-10-19T22:57:39.301Z,7.07
2022-10-19T23:00:06.700Z,3.80
2022-10-19T23:02:34.012Z,4.07
2022-10-19T23:05:01.026Z,6.40
2022-10-19T23:07:28.007Z,6.63
2022-10-19T23:09:54.826Z,4.13
2022-10-19T23:12:22.020Z,5.30
2022-10-19T23:14:48.754Z,6.18
2022-10-19T23:17:15.697Z,4.47
2022-10-19T23:19:42.526Z,5.57
2022-10-19T23:22:09.571Z,4.97
2022-10-19T23:24:36.315Z,5.20
2022-10-19T23:27:03.775Z,5.95
2022-10-19T23:29:30.628Z,7.57
2022-10-19T23:31:57.606Z,4.95
2022-10-19T23:34:24.421Z,5.05
2022-10-19T23:36:51.446Z,6.97
2022-10-19T23:39:18.321Z,5.05
2022-10-19T23:41:45.249Z,4.78
2022-10-19T23:44:12.141Z,5.93
2022-10-19T23:46:39.048Z,6.65
2022-10-19T23:49:05.846Z,7.75
2022-10-19T23:51:32.780Z,6.90
2022-10-19T23:53:59.508Z,3.60
2022-10-19T23:56:28.470Z,6.50
2022-10-19T23:58:56.173Z,5.95
